Time;durP1;ratioP1;P1;durP2;ratioP2;P2;SDS_P1;SDS_P2;PMS_P1;PMS_P2;Temp;Humidity;BMP_temperature;BMP_pressure;BME280_temperature;BME280_humidity;BME280_pressure;Samples;Min_cycle;Max_cycle;Signal;HPM_P1;HPM_P2
2021/08/31 00:00:53;;;;;;;;;15.25;12.00;;;;;17.55;71.17;101411.41;5017064;28;45238;-64
2021/08/31 00:03:18;;;;;;;;;18.50;12.50;;;;;17.53;71.74;101423.94;5016561;28;46374;-62
2021/08/31 00:05:44;;;;;;;;;17.75;15.50;;;;;17.51;71.36;101418.72;4998680;28;45465;-64
2021/08/31 00:08:09;;;;;;;;;13.50;13.00;;;;;17.50;71.51;101414.34;5016251;28;45682;-62
2021/08/31 00:10:35;;;;;;;;;17.50;13.00;;;;;17.49;71.54;101412.59;5016738;28;45519;-62
2021/08/31 00:13:00;;;;;;;;;14.50;12.25;;;;;17.51;71.23;101409.88;5016184;28;45697;-62
2021/08/31 00:15:26;;;;;;;;;14.75;13.25;;;;;17.54;71.21;101419.47;4998674;28;45641;-63
2021/08/31 00:17:51;;;;;;;;;18.25;13.50;;;;;17.54;71.15;101408.84;5016581;28;45175;-62
2021/08/31 00:20:17;;;;;;;;;15.50;14.00;;;;;17.59;70.83;101409.44;4998695;28;45607;-63
2021/08/31 00:22:42;;;;;;;;;14.50;13.25;;;;;17.59;70.66;101418.25;5016295;28;46006;-62
2021/08/31 00:25:11;;;;;;;;;11.50;10.50;;;;;17.49;71.28;101406.44;4998342;28;45785;-62
2021/08/31 00:27:37;;;;;;;;;15.50;13.00;;;;;17.48;71.11;101404.72;5016478;28;45400;-63
2021/08/31 00:30:04;;;;;;;;;16.75;13.25;;;;;17.47;71.53;101403.00;4998576;28;45348;-63
2021/08/31 00:32:29;;;;;;;;;15.25;12.50;;;;;17.45;71.30;101396.91;5015873;28;47361;-62
2021/08/31 00:34:54;;;;;;;;;17.00;13.50;;;;;17.44;71.28;101401.34;5016349;28;45466;-63
2021/08/31 00:37:20;;;;;;;;;14.75;10.50;;;;;17.44;71.67;101405.84;5016306;28;45246;-64
2021/08/31 00:39:45;;;;;;;;;14.50;10.00;;;;;17.42;71.29;101403.25;5016454;28;45258;-63
2021/08/31 00:42:10;;;;;;;;;9.75;7.50;;;;;17.40;71.42;101401.63;5015943;28;46179;-63
2021/08/31 00:44:35;;;;;;;;;15.00;11.75;;;;;17.38;71.75;101415.00;5015971;28;45229;-62
2021/08/31 00:47:05;;;;;;;;;10.25;10.00;;;;;17.31;71.80;101408.31;4998262;28;45338;-63
2021/08/31 00:49:34;;;;;;;;;15.00;11.75;;;;;17.28;71.54;101409.34;5016242;28;45287;-62
2021/08/31 00:52:00;;;;;;;;;12.50;12.00;;;;;17.30;71.44;101406.59;5014163;28;46907;-62
2021/08/31 00:54:27;;;;;;;;;13.00;11.00;;;;;17.32;71.49;101402.91;4998182;28;45302;-63
2021/08/31 00:56:53;;;;;;;;;11.25;10.00;;;;;17.31;71.44;101395.88;5015911;28;45239;-62
2021/08/31 00:59:19;;;;;;;;;10.50;10.50;;;;;17.35;71.43;101393.91;5015887;28;45607;-61
2021/08/31 01:01:48;;;;;;;;;11.25;11.00;;;;;17.29;71.39;101389.78;5015448;28;45655;-62
2021/08/31 01:04:14;;;;;;;;;15.00;11.50;;;;;17.25;71.45;101398.00;5015456;28;45324;-61
2021/08/31 01:06:39;;;;;;;;;10.00;8.75;;;;;17.24;71.49;101399.81;5015531;28;45342;-61
2021/08/31 01:09:07;;;;;;;;;13.75;9.75;;;;;17.20;71.84;101408.91;5015782;28;45372;-62
2021/08/31 01:11:34;;;;;;;;;11.00;9.25;;;;;17.17;71.72;101409.94;4997719;28;48156;-62
2021/08/31 01:14:00;;;;;;;;;8.75;8.50;;;;;17.17;71.78;101407.28;5015655;28;45246;-62
2021/08/31 01:16:25;;;;;;;;;10.25;8.00;;;;;17.16;71.83;101407.38;4997527;28;45464;-63
2021/08/31 01:18:51;;;;;;;;;13.25;9.00;;;;;17.17;71.90;101409.09;5015471;28;45912;-64
2021/08/31 01:21:16;;;;;;;;;13.50;11.00;;;;;17.20;71.63;101404.44;5015273;28;45486;-63
2021/08/31 01:23:46;;;;;;;;;8.75;8.25;;;;;17.22;71.46;101405.22;5015116;28;45476;-62
2021/08/31 01:26:11;;;;;;;;;13.25;10.50;;;;;17.22;71.58;101404.38;5013810;28;45259;-63
2021/08/31 01:28:37;;;;;;;;;12.00;9.25;;;;;17.13;71.82;101403.06;5015280;28;45278;-62
2021/08/31 01:31:03;;;;;;;;;11.00;11.00;;;;;17.05;71.87;101414.13;5015306;28;46242;-63
2021/08/31 01:33:31;;;;;;;;;10.00;8.00;;;;;16.91;72.16;101406.88;5015409;28;45340;-62
2021/08/31 01:35:58;;;;;;;;;11.50;10.00;;;;;16.85;72.41;101412.50;5015545;28;45312;-62
2021/08/31 01:38:24;;;;;;;;;8.25;7.25;;;;;16.74;72.41;101409.56;4997481;28;45547;-62
2021/08/31 01:40:50;;;;;;;;;11.25;8.50;;;;;16.72;72.92;101414.94;5015069;28;45417;-62
2021/08/31 01:43:26;;;;;;;;;11.50;11.00;;;;;16.68;72.96;101412.56;5015160;28;45474;-61
2021/08/31 01:45:53;;;;;;;;;11.25;6.50;;;;;16.64;73.53;101418.03;5015115;28;45447;-62
2021/08/31 01:48:19;;;;;;;;;11.25;10.00;;;;;16.60;73.22;101415.59;5015278;28;45632;-61
2021/08/31 01:50:45;;;;;;;;;11.25;9.00;;;;;16.59;73.46;101409.44;5014882;28;46513;-61
2021/08/31 01:53:11;;;;;;;;;13.00;9.50;;;;;16.56;73.17;101408.72;5014795;28;45362;-61
2021/08/31 01:55:36;;;;;;;;;13.75;9.25;;;;;16.60;73.08;101411.16;5014255;28;45356;-62
2021/08/31 01:58:02;;;;;;;;;8.75;7.25;;;;;16.59;73.17;101408.56;5015365;28;45359;-62
2021/08/31 02:00:29;;;;;;;;;13.50;10.00;;;;;16.60;73.51;101407.63;5014832;28;45691;-61
2021/08/31 02:02:55;;;;;;;;;10.25;7.75;;;;;16.56;73.28;101403.41;5014746;28;45216;-61
2021/08/31 02:05:20;;;;;;;;;12.75;8.25;;;;;16.55;73.58;101412.31;5014774;28;45491;-61
2021/08/31 02:07:46;;;;;;;;;10.75;9.25;;;;;16.50;73.75;101404.63;5014653;28;45309;-61
2021/08/31 02:10:11;;;;;;;;;13.25;9.75;;;;;16.54;73.58;101415.91;5014618;28;46464;-61
2021/08/31 02:12:37;;;;;;;;;12.00;9.25;;;;;16.56;73.51;101416.69;4980366;28;45354;-61
2021/08/31 02:15:03;;;;;;;;;11.00;11.00;;;;;16.59;73.37;101422.72;5014988;28;45975;-62
2021/08/31 02:17:29;;;;;;;;;13.50;8.50;;;;;16.60;73.91;101411.16;5015209;28;45370;-62
2021/08/31 02:19:54;;;;;;;;;9.50;9.50;;;;;16.56;73.55;101401.63;5014309;28;45412;-62
2021/08/31 02:22:20;;;;;;;;;12.00;10.25;;;;;16.59;73.42;101405.91;5014761;28;45305;-63
2021/08/31 02:24:45;;;;;;;;;11.00;9.75;;;;;16.61;73.62;101410.22;5014785;28;45373;-63
2021/08/31 02:27:11;;;;;;;;;14.25;10.75;;;;;16.62;73.66;101417.25;5014827;28;45434;-62
2021/08/31 02:29:36;;;;;;;;;12.25;8.50;;;;;16.64;73.55;101409.19;5014427;28;46724;-63
2021/08/31 02:32:03;;;;;;;;;10.25;8.25;;;;;16.64;73.13;101409.19;5014909;28;45419;-60
2021/08/31 02:34:28;;;;;;;;;11.50;9.50;;;;;16.66;73.10;101407.31;5014496;28;45333;-62
2021/08/31 02:36:54;;;;;;;;;14.75;12.25;;;;;16.67;73.27;101405.53;5014579;28;45657;-61
2021/08/31 02:39:19;;;;;;;;;11.00;10.75;;;;;16.65;73.53;101411.78;4996501;28;48109;-61
2021/08/31 02:41:45;;;;;;;;;12.75;11.50;;;;;16.62;73.56;101408.41;4996636;28;45620;-63
2021/08/31 02:44:10;;;;;;;;;13.50;9.50;;;;;16.62;73.47;101403.97;4996611;28;45447;-61
2021/08/31 02:46:35;;;;;;;;;12.00;11.00;;;;;16.65;73.57;101414.44;5014648;28;45349;-63
2021/08/31 02:49:01;;;;;;;;;10.00;9.50;;;;;16.68;73.15;101404.59;5014412;28;46288;-62
2021/08/31 02:51:26;;;;;;;;;13.75;10.00;;;;;16.69;73.06;101411.63;5014042;28;45293;-62
2021/08/31 02:53:52;;;;;;;;;10.75;10.25;;;;;16.57;73.49;101389.19;5014418;28;45373;-62
2021/08/31 02:56:17;;;;;;;;;16.25;11.75;;;;;16.67;72.99;101406.38;4996836;28;45500;-62
2021/08/31 02:58:42;;;;;;;;;12.25;9.00;;;;;16.69;72.88;101400.97;4996240;28;46337;-63
2021/08/31 03:03:52;;;;;;;;;13.25;11.00;;;;;16.69;72.86;101395.66;5014164;28;45384;-62
2021/08/31 03:06:17;;;;;;;;;13.50;10.75;;;;;16.68;73.03;101397.44;5014712;28;45539;-64
2021/08/31 03:08:42;;;;;;;;;11.25;9.75;;;;;16.64;72.95;101393.25;4999634;28;47808;-63
2021/08/31 03:11:08;;;;;;;;;12.50;10.25;;;;;16.62;73.46;101405.75;5017476;28;45425;-64
2021/08/31 03:13:33;;;;;;;;;11.75;10.00;;;;;16.57;72.99;101394.50;5018010;28;45388;-62
2021/08/31 03:15:58;;;;;;;;;7.75;5.50;;;;;16.49;73.23;101401.09;5017652;28;45420;-63
2021/08/31 03:18:24;;;;;;;;;14.75;10.75;;;;;16.45;73.53;101399.53;4999273;28;47069;-62
2021/08/31 03:20:49;;;;;;;;;14.25;11.50;;;;;16.46;73.49;101401.25;4999157;28;45443;-62
2021/08/31 03:23:14;;;;;;;;;11.25;9.00;;;;;16.47;73.54;101404.78;4999281;28;45382;-61
2021/08/31 03:25:40;;;;;;;;;12.50;9.00;;;;;16.48;73.61;101396.72;4999315;28;45445;-63
2021/08/31 03:28:05;;;;;;;;;13.50;11.00;;;;;16.50;73.55;101409.91;5017380;28;46435;-62
2021/08/31 03:30:31;;;;;;;;;11.00;10.00;;;;;16.52;73.53;101416.00;5016985;28;45265;-62
2021/08/31 03:32:56;;;;;;;;;12.00;9.25;;;;;16.57;73.40;101408.66;5017024;28;45410;-63
2021/08/31 03:35:21;;;;;;;;;12.00;10.25;;;;;16.62;73.19;101413.72;5017454;28;45519;-64
2021/08/31 03:37:47;;;;;;;;;11.00;9.00;;;;;16.66;73.35;101423.25;5016930;28;45648;-64
2021/08/31 03:40:12;;;;;;;;;10.50;9.00;;;;;16.68;73.43;101423.19;5016752;28;45339;-63
2021/08/31 03:42:38;;;;;;;;;13.50;11.75;;;;;16.69;73.12;101417.75;5017019;28;45504;-63
2021/08/31 03:45:04;;;;;;;;;15.00;11.25;;;;;16.73;72.79;101423.78;5017482;28;45494;-64
2021/08/31 03:47:29;;;;;;;;;10.75;8.25;;;;;16.75;72.93;101432.53;5016911;28;46711;-63
2021/08/31 03:49:55;;;;;;;;;11.25;10.25;;;;;16.77;72.58;101426.19;4998820;28;45569;-63
2021/08/31 03:52:20;;;;;;;;;12.75;9.75;;;;;16.77;72.49;101420.03;5016926;28;45378;-63
2021/08/31 03:54:46;;;;;;;;;11.50;10.75;;;;;16.77;73.00;101431.50;5017095;28;45547;-63
2021/08/31 03:57:11;;;;;;;;;11.50;9.50;;;;;16.75;72.85;101419.25;5015134;28;46579;-63
2021/08/31 03:59:36;;;;;;;;;9.00;8.50;;;;;16.78;72.59;101430.56;5016755;28;45198;-62
2021/08/31 04:02:02;;;;;;;;;13.75;10.25;;;;;16.82;72.68;101431.28;5016720;28;45302;-63
2021/08/31 04:04:27;;;;;;;;;14.00;12.50;;;;;16.85;72.54;101427.56;5016994;28;45191;-64
2021/08/31 04:06:53;;;;;;;;;11.00;9.50;;;;;16.83;72.48;101429.47;5016337;28;46427;-63
2021/08/31 04:09:18;;;;;;;;;12.50;12.00;;;;;16.90;72.38;101434.38;5016665;28;45252;-63
2021/08/31 04:11:43;;;;;;;;;14.75;12.00;;;;;16.91;72.64;101440.53;5016548;28;45899;-63
2021/08/31 04:14:09;;;;;;;;;14.50;12.50;;;;;16.92;72.37;101439.59;4999103;28;45534;-63
2021/08/31 04:16:34;;;;;;;;;16.75;14.25;;;;;16.96;72.24;101445.63;5016292;28;45437;-63
2021/08/31 04:18:59;;;;;;;;;15.00;12.50;;;;;16.97;72.25;101439.38;5015770;28;45504;-63
2021/08/31 04:21:25;;;;;;;;;14.00;13.00;;;;;17.01;72.11;101444.47;5016534;28;45942;-63
2021/08/31 04:23:50;;;;;;;;;23.25;14.50;;;;;16.99;72.24;101441.03;5016678;28;45317;-63
2021/08/31 04:26:15;;;;;;;;;14.00;10.75;;;;;16.99;72.26;101440.16;5016164;28;46309;-62
2021/08/31 04:28:41;;;;;;;;;16.00;16.00;;;;;16.97;71.96;101450.91;5016345;28;45418;-63
2021/08/31 04:31:06;;;;;;;;;15.00;12.50;;;;;16.91;72.22;101440.53;5016694;28;45775;-63
2021/08/31 04:33:32;;;;;;;;;16.25;12.25;;;;;16.93;72.27;101441.31;5016514;28;45310;-63
2021/08/31 04:35:57;;;;;;;;;17.50;14.75;;;;;16.94;72.10;101449.22;4998151;28;46995;-62
2021/08/31 04:38:22;;;;;;;;;18.00;13.00;;;;;16.98;72.36;101449.97;4997872;28;45451;-61
2021/08/31 04:40:48;;;;;;;;;15.50;14.50;;;;;17.01;71.97;101455.09;5014371;28;45855;-62
2021/08/31 04:43:13;;;;;;;;;18.75;15.75;;;;;17.04;72.30;101448.75;5016218;28;45610;-61
2021/08/31 04:45:38;;;;;;;;;18.00;14.50;;;;;17.05;71.94;101445.16;5015945;28;46126;-62
2021/08/31 04:48:05;;;;;;;;;19.50;17.25;;;;;17.04;72.17;101439.00;5016298;28;45357;-64
2021/08/31 04:50:31;;;;;;;;;17.50;16.25;;;;;17.06;72.25;101453.06;5016011;28;45443;-61
2021/08/31 04:52:56;;;;;;;;;19.75;16.25;;;;;17.07;71.95;101452.13;5015942;28;45660;-61
2021/08/31 04:55:21;;;;;;;;;19.00;18.00;;;;;17.06;71.80;101452.19;5015551;28;45348;-62
2021/08/31 04:57:47;;;;;;;;;16.25;16.25;;;;;17.04;72.05;101451.41;5015492;28;45431;-62
2021/08/31 05:00:13;;;;;;;;;25.00;17.25;;;;;17.03;72.20;101452.34;5014154;28;45355;-62
2021/08/31 05:02:38;;;;;;;;;21.50;16.25;;;;;17.05;72.19;101458.44;4998199;28;45614;-61
2021/08/31 05:05:04;;;;;;;;;16.25;14.25;;;;;17.06;72.09;101458.38;4997240;28;46449;-61
2021/08/31 05:07:29;;;;;;;;;17.25;17.25;;;;;17.07;72.34;101456.56;5015312;28;45471;-62
2021/08/31 05:09:55;;;;;;;;;19.25;16.75;;;;;17.02;72.36;101454.16;5015656;28;45468;-62
2021/08/31 05:12:20;;;;;;;;;18.25;17.00;;;;;17.01;72.56;101457.78;4998176;28;45405;-62
2021/08/31 05:14:46;;;;;;;;;21.50;17.50;;;;;16.96;72.67;101449.13;5015424;28;46338;-63
2021/08/31 05:17:12;;;;;;;;;23.25;18.25;;;;;16.95;72.77;101444.75;5015695;28;45278;-62
2021/08/31 05:19:38;;;;;;;;;20.25;19.50;;;;;16.97;72.50;101452.66;4997602;28;45403;-62
2021/08/31 05:22:04;;;;;;;;;29.25;20.75;;;;;17.00;72.73;101457.84;5015702;28;45583;-63
2021/08/31 05:24:30;;;;;;;;;22.25;18.75;;;;;17.05;72.63;101467.28;5014975;28;46104;-64
2021/08/31 05:26:58;;;;;;;;;23.00;17.25;;;;;17.06;72.63;101460.16;5015340;28;45219;-62
2021/08/31 05:29:24;;;;;;;;;20.75;18.50;;;;;17.03;72.47;101458.53;5014531;28;45436;-63
2021/08/31 05:31:49;;;;;;;;;20.00;18.50;;;;;17.03;72.99;101473.63;5015639;28;45253;-63
2021/08/31 05:34:15;;;;;;;;;31.00;23.00;;;;;17.00;73.00;101469.34;5015112;28;45653;-63
2021/08/31 05:36:40;;;;;;;;;27.25;22.50;;;;;16.96;73.21;101472.19;5015336;28;45390;-62
2021/08/31 05:39:06;;;;;;;;;25.00;21.00;;;;;17.00;72.94;101466.69;5014803;28;45604;-64
2021/08/31 05:41:33;;;;;;;;;24.00;22.00;;;;;17.03;72.95;101468.31;5015275;28;45424;-62
2021/08/31 05:43:59;;;;;;;;;29.75;22.50;;;;;17.07;72.92;101469.84;5014624;28;45263;-62
2021/08/31 05:46:24;;;;;;;;;33.00;28.75;;;;;17.11;72.86;101471.41;5014810;28;45937;-63
2021/08/31 05:48:50;;;;;;;;;21.50;20.00;;;;;17.06;72.64;101468.13;5015062;28;45808;-64
2021/08/31 05:51:18;;;;;;;;;25.00;19.75;;;;;17.10;72.71;101480.31;5015256;28;45157;-61
2021/08/31 05:53:43;;;;;;;;;23.50;19.75;;;;;17.13;72.76;101487.28;5015024;28;45398;-63
2021/08/31 05:56:08;;;;;;;;;25.25;20.25;;;;;17.17;72.84;101480.88;5014646;28;45346;-64
2021/08/31 05:58:34;;;;;;;;;21.00;20.25;;;;;17.21;72.74;101493.91;5014747;28;45600;-63
2021/08/31 06:00:59;;;;;;;;;25.50;20.50;;;;;17.20;72.74;101486.00;4996963;28;45388;-64
2021/08/31 06:03:24;;;;;;;;;26.00;21.00;;;;;17.17;72.68;101481.72;4996715;28;45586;-65
2021/08/31 06:05:50;;;;;;;;;25.50;19.00;;;;;17.19;72.73;101484.31;5014820;28;45270;-64
2021/08/31 06:08:15;;;;;;;;;37.00;23.25;;;;;17.21;72.60;101490.38;4996736;28;45427;-63
2021/08/31 06:10:42;;;;;;;;;28.75;22.50;;;;;17.23;72.60;101491.16;5015620;28;45332;-63
2021/08/31 06:13:07;;;;;;;;;28.75;24.75;;;;;17.28;72.53;101501.53;4997029;28;47306;-63
2021/08/31 06:15:33;;;;;;;;;30.75;23.00;;;;;17.31;72.63;101496.06;5015151;28;45536;-63
2021/08/31 06:17:58;;;;;;;;;21.75;20.50;;;;;17.36;72.39;101500.19;5014948;28;45266;-62
2021/08/31 06:20:24;;;;;;;;;26.75;23.25;;;;;17.33;72.39;101497.69;5015094;28;45473;-63
2021/08/31 06:22:49;;;;;;;;;28.25;18.50;;;;;17.33;72.10;101504.81;5014172;28;46329;-62
2021/08/31 06:25:15;;;;;;;;;26.75;22.75;;;;;17.30;72.46;101503.19;5014731;28;45243;-63
2021/08/31 06:27:40;;;;;;;;;28.25;24.00;;;;;17.34;72.51;101499.41;4996504;28;45364;-63
2021/08/31 06:30:07;;;;;;;;;27.00;24.75;;;;;17.41;72.50;101504.41;5014728;28;45587;-64
2021/08/31 06:32:33;;;;;;;;;29.00;22.00;;;;;17.44;72.05;101514.88;4996375;28;45869;-63
2021/08/31 06:34:59;;;;;;;;;25.00;23.50;;;;;17.45;72.30;101506.78;5014037;28;45489;-63
2021/08/31 06:37:24;;;;;;;;;36.00;26.50;;;;;17.46;72.40;101507.66;5014034;28;45341;-62
2021/08/31 06:39:50;;;;;;;;;50.50;36.25;;;;;17.47;72.27;101499.59;5014615;28;45650;-63
2021/08/31 06:42:15;;;;;;;;;41.25;31.00;;;;;17.56;72.08;101510.69;4999358;28;47473;-62
2021/08/31 06:44:40;;;;;;;;;44.75;33.25;;;;;17.57;71.76;101507.09;5017457;28;45392;-64
2021/08/31 06:47:06;;;;;;;;;32.00;24.50;;;;;17.64;71.58;101516.44;5017688;28;45528;-63
2021/08/31 06:49:33;;;;;;;;;33.25;28.25;;;;;17.74;71.81;101522.09;5000014;28;45622;-64
2021/08/31 06:51:59;;;;;;;;;28.00;23.25;;;;;17.80;71.36;101513.78;5017494;28;45441;-63
2021/08/31 06:54:25;;;;;;;;;29.00;26.00;;;;;17.86;71.28;101509.94;4999101;28;45327;-62
2021/08/31 06:56:51;;;;;;;;;31.50;25.25;;;;;17.82;70.99;101498.59;5017429;28;45222;-62
2021/08/31 06:59:16;;;;;;;;;28.50;25.25;;;;;17.92;70.59;101514.91;5017819;28;45217;-63
2021/08/31 07:01:41;;;;;;;;;29.75;22.25;;;;;17.93;71.24;101509.47;5017306;28;46426;-63
2021/08/31 07:04:07;;;;;;;;;33.00;27.25;;;;;17.98;70.70;101509.22;5017263;28;45298;-64
2021/08/31 07:06:32;;;;;;;;;26.00;24.50;;;;;18.02;70.44;101510.81;5017183;28;45186;-63
2021/08/31 07:08:59;;;;;;;;;29.25;19.50;;;;;18.11;70.40;101520.09;5017423;28;45321;-63
2021/08/31 07:11:25;;;;;;;;;34.75;28.75;;;;;18.14;70.19;101517.25;5017106;28;46553;-64
2021/08/31 07:13:50;;;;;;;;;34.75;28.00;;;;;18.21;70.26;101518.59;5015579;28;45384;-64
2021/08/31 07:16:16;;;;;;;;;41.00;31.50;;;;;18.34;69.54;101521.41;5017556;28;45393;-62
2021/08/31 07:18:41;;;;;;;;;37.50;31.50;;;;;18.44;69.64;101527.06;5017196;28;45743;-63
2021/08/31 07:21:06;;;;;;;;;28.25;27.00;;;;;18.51;69.08;101517.75;4998929;28;46988;-63
2021/08/31 07:23:32;;;;;;;;;26.50;23.00;;;;;18.54;68.93;101522.03;5015376;28;45461;-63
2021/08/31 07:25:57;;;;;;;;;35.00;29.50;;;;;18.50;68.87;101521.38;5016710;28;45407;-63
2021/08/31 07:28:23;;;;;;;;;29.75;24.25;;;;;18.55;68.94;101523.75;5017110;28;45544;-63
2021/08/31 07:30:48;;;;;;;;;29.25;24.50;;;;;18.61;68.72;101512.75;4999008;28;47618;-63
2021/08/31 07:33:14;;;;;;;;;36.25;29.75;;;;;18.66;68.60;101517.78;4998771;28;45349;-63
2021/08/31 07:35:39;;;;;;;;;33.75;28.50;;;;;18.68;68.48;101519.44;4998842;28;45267;-62
2021/08/31 07:38:05;;;;;;;;;29.75;25.50;;;;;18.77;68.07;101523.34;5017052;28;45518;-66
2021/08/31 07:40:32;;;;;;;;;32.25;28.25;;;;;18.91;68.27;101524.31;5015123;28;47758;-63
2021/08/31 07:42:57;;;;;;;;;37.25;29.00;;;;;19.09;67.29;101512.59;5016730;28;45213;-63
2021/08/31 07:45:23;;;;;;;;;26.00;25.25;;;;;19.22;66.68;101526.00;5016623;28;45515;-62
2021/08/31 07:47:49;;;;;;;;;31.25;28.50;;;;;19.27;66.31;101517.72;5017267;28;45530;-62
2021/08/31 07:50:15;;;;;;;;;32.50;29.00;;;;;19.30;66.32;101522.00;5016549;28;46325;-63
2021/08/31 07:52:41;;;;;;;;;34.50;25.75;;;;;19.33;66.01;101524.47;5015846;28;45377;-61
2021/08/31 07:55:09;;;;;;;;;35.25;28.25;;;;;19.33;66.19;101522.69;4998507;28;45487;-61
2021/08/31 07:57:35;;;;;;;;;31.00;28.25;;;;;19.45;65.99;101522.84;5016635;28;45293;-62
2021/08/31 08:00:04;;;;;;;;;28.25;24.75;;;;;19.65;65.42;101521.59;5015798;28;46512;-62
2021/08/31 08:02:33;;;;;;;;;34.25;29.50;;;;;19.78;65.29;101530.53;5016030;28;45483;-62
2021/08/31 08:04:59;;;;;;;;;35.50;31.00;;;;;19.88;65.55;101524.59;5016217;28;45440;-63
2021/08/31 08:07:25;;;;;;;;;30.75;23.50;;;;;20.02;64.23;101529.06;5016491;28;45471;-64
2021/08/31 08:09:51;;;;;;;;;26.25;24.25;;;;;20.03;64.36;101528.09;5016394;28;46585;-63
2021/08/31 08:12:16;;;;;;;;;33.00;27.00;;;;;20.02;64.39;101537.94;5016253;28;45265;-63
2021/08/31 08:14:42;;;;;;;;;32.75;28.00;;;;;20.08;63.62;101540.22;5016266;28;45355;-62
2021/08/31 08:17:07;;;;;;;;;30.50;25.00;;;;;20.20;63.66;101543.91;5016557;28;45219;-62
2021/08/31 08:19:33;;;;;;;;;29.50;25.00;;;;;20.36;63.05;101540.22;5016012;28;45368;-64
2021/08/31 08:21:58;;;;;;;;;28.50;23.75;;;;;20.52;61.81;101548.03;5016139;28;45976;-63
2021/08/31 08:24:23;;;;;;;;;32.75;26.50;;;;;20.48;61.46;101547.41;5015958;28;45523;-64
2021/08/31 08:26:51;;;;;;;;;28.25;26.50;;;;;20.49;61.47;101546.44;5016579;28;45370;-62
2021/08/31 08:29:17;;;;;;;;;25.25;20.50;;;;;20.56;61.62;101553.09;5016215;28;46378;-62
2021/08/31 08:31:45;;;;;;;;;26.75;22.50;;;;;20.57;61.26;101544.13;5016040;28;45261;-63
2021/08/31 08:34:11;;;;;;;;;26.75;23.75;;;;;20.61;61.07;101547.44;5016031;28;45406;-63
2021/08/31 08:36:36;;;;;;;;;35.75;29.00;;;;;20.60;61.37;101556.41;4998067;28;45366;-63
2021/08/31 08:39:02;;;;;;;;;27.00;22.75;;;;;20.54;60.19;101555.03;4997565;28;45471;-64
2021/08/31 08:41:27;;;;;;;;;20.75;16.50;;;;;20.48;60.50;101558.09;5014670;28;45490;-63
2021/08/31 08:43:58;;;;;;;;;24.75;24.00;;;;;20.44;60.75;101551.25;5014677;28;45459;-62
2021/08/31 08:46:25;;;;;;;;;29.75;23.50;;;;;20.58;60.74;101561.88;5014558;28;45540;-62
2021/08/31 08:48:50;;;;;;;;;24.50;23.00;;;;;20.68;59.87;101555.91;4997881;28;46361;-62
2021/08/31 08:51:16;;;;;;;;;27.75;22.00;;;;;20.68;58.99;101554.09;5015451;28;45210;-62
2021/08/31 08:53:42;;;;;;;;;32.00;25.75;;;;;20.68;60.04;101564.78;5015784;28;45214;-63
2021/08/31 08:56:07;;;;;;;;;30.50;26.25;;;;;20.85;59.63;101565.50;5014421;28;45348;-63
2021/08/31 08:58:33;;;;;;;;;24.25;22.75;;;;;21.06;59.31;101568.50;5015761;28;46283;-63
2021/08/31 09:01:02;;;;;;;;;28.25;23.75;;;;;21.27;59.08;101567.97;5015721;28;45335;-64
2021/08/31 09:03:29;;;;;;;;;24.25;21.75;;;;;21.36;57.20;101556.63;5014598;28;45307;-64
2021/08/31 09:06:13;;;;;;;;;30.00;23.50;;;;;21.56;56.23;101568.56;4998451;28;45372;-63
2021/08/31 09:08:43;;;;;;;;;30.00;22.50;;;;;21.59;55.13;101568.34;5015597;28;45340;-63
2021/08/31 09:11:27;;;;;;;;;27.50;23.75;;;;;21.71;55.94;101566.66;5015531;28;45427;-63
2021/08/31 09:14:22;;;;;;;;;26.00;23.00;;;;;21.78;54.88;101564.41;5015871;28;45285;-63
2021/08/31 09:16:56;;;;;;;;;26.50;23.50;;;;;21.84;55.69;101565.78;5015951;28;45534;-63
2021/08/31 09:19:30;;;;;;;;;25.00;23.00;;;;;21.81;56.05;101568.69;5015656;28;45722;-63
2021/08/31 09:22:20;;;;;;;;;28.50;23.00;;;;;21.73;55.81;101567.41;5013799;28;45299;-63
2021/08/31 09:25:04;;;;;;;;;24.75;21.00;;;;;21.78;55.76;101566.22;5013942;28;45485;-63
2021/08/31 09:27:37;;;;;;;;;25.50;22.00;;;;;21.82;55.21;101581.09;5015292;28;45557;-63
2021/08/31 09:30:23;;;;;;;;;22.50;20.75;;;;;21.79;55.95;101575.97;4997293;28;45637;-64
2021/08/31 09:33:04;;;;;;;;;21.00;20.50;;;;;21.85;55.72;101567.47;5015068;28;45353;-64
2021/08/31 09:35:31;;;;;;;;;22.75;22.50;;;;;21.96;55.45;101569.41;5015242;28;45293;-63
2021/08/31 09:38:17;;;;;;;;;40.00;34.50;;;;;21.99;54.64;101570.00;5015219;28;45587;-63
2021/08/31 09:40:44;;;;;;;;;51.75;41.75;;;;;22.11;54.62;101572.75;5014876;28;46222;-65
2021/08/31 09:43:18;;;;;;;;;26.25;20.00;;;;;22.07;53.63;101572.13;5015162;28;45557;-63
2021/08/31 09:45:46;;;;;;;;;21.00;19.75;;;;;22.04;54.04;101572.38;5014755;28;45244;-63
2021/08/31 09:48:13;;;;;;;;;24.75;21.00;;;;;22.07;54.22;101569.47;5015131;28;45471;-62
2021/08/31 09:50:42;;;;;;;;;29.75;23.50;;;;;21.92;53.75;101558.03;5014836;28;45556;-64
2021/08/31 09:53:15;;;;;;;;;31.50;26.75;;;;;21.93;53.01;101566.94;4997004;28;45365;-64
2021/08/31 09:55:43;;;;;;;;;27.25;25.50;;;;;21.98;53.16;101567.47;5014307;28;45223;-62
2021/08/31 09:58:22;;;;;;;;;31.25;25.75;;;;;22.20;52.74;101572.06;5014385;28;45599;-64
2021/08/31 10:00:49;;;;;;;;;25.25;24.75;;;;;22.32;53.33;101571.19;5014086;28;46188;-63
2021/08/31 10:03:16;;;;;;;;;23.50;23.50;;;;;22.40;52.71;101567.06;5013966;28;45275;-63
2021/08/31 10:05:43;;;;;;;;;29.50;25.25;;;;;22.45;51.89;101573.81;5014353;28;45257;-63
2021/08/31 10:08:10;;;;;;;;;26.25;24.50;;;;;22.46;51.70;101570.16;5012742;28;45462;-64
2021/08/31 10:10:36;;;;;;;;;31.50;25.75;;;;;22.56;51.02;101580.19;5014043;28;46080;-64
2021/08/31 10:13:05;;;;;;;;;26.00;22.00;;;;;;;;5014108;28;45497;-63
2021/08/31 10:15:35;;;;;;;;;39.00;30.25;;;;;22.95;51.56;101572.78;5014050;28;45329;-63
2021/08/31 10:18:02;;;;;;;;;39.25;34.25;;;;;23.32;51.35;101580.66;4996523;28;45510;-63
2021/08/31 10:20:30;;;;;;;;;25.50;22.75;;;;;23.64;49.93;101579.09;5014108;28;46189;-65
2021/08/31 10:22:58;;;;;;;;;32.75;29.75;;;;;23.78;48.87;101576.13;5014488;28;45286;-63
2021/08/31 10:25:26;;;;;;;;;31.25;27.50;;;;;23.64;48.14;101571.03;4996358;28;45938;-63
2021/08/31 10:27:52;;;;;;;;;25.75;23.50;;;;;23.46;49.33;101576.91;5014346;28;45359;-64
2021/08/31 10:30:18;;;;;;;;;27.75;25.25;;;;;23.36;49.45;101580.41;5013690;28;45641;-63
2021/08/31 10:32:46;;;;;;;;;28.50;22.00;;;;;23.31;48.79;101575.41;5013619;28;45338;-64
2021/08/31 10:35:44;;;;;;;;;27.00;23.75;;;;;23.47;49.27;101578.59;5014233;28;45220;-63
2021/08/31 10:38:12;;;;;;;;;23.00;21.50;;;;;23.54;49.27;101589.69;4970135;28;45621;-63
2021/08/31 10:40:43;;;;;;;;;29.00;23.75;;;;;23.60;49.15;101586.50;5013532;28;46345;-63
2021/08/31 10:43:11;;;;;;;;;25.25;22.50;;;;;23.47;48.35;101578.59;4996003;28;45581;-64
2021/08/31 10:45:51;;;;;;;;;30.75;27.75;;;;;23.28;48.69;101594.44;5012552;28;45400;-63
2021/08/31 10:48:23;;;;;;;;;29.00;25.75;;;;;23.05;49.11;101587.19;5014166;28;45317;-64
2021/08/31 10:51:10;;;;;;;;;25.00;24.00;;;;;22.94;48.68;101587.16;5013372;28;45552;-63
2021/08/31 10:53:42;;;;;;;;;20.75;20.75;;;;;22.83;48.87;101587.97;5013325;28;45227;-63
2021/08/31 10:56:20;;;;;;;;;21.00;19.25;;;;;22.67;48.96;101587.44;4995825;28;45538;-63
2021/08/31 10:58:51;;;;;;;;;22.25;21.25;;;;;22.55;49.48;101590.06;5014098;28;45623;-64
2021/08/31 11:01:18;;;;;;;;;19.25;17.25;;;;;22.49;49.54;101592.34;5012905;28;45435;-63
2021/08/31 11:03:45;;;;;;;;;27.50;25.50;;;;;22.46;49.76;101591.59;4995253;28;45383;-63
2021/08/31 11:06:15;;;;;;;;;24.25;22.00;;;;;22.56;50.13;101586.44;4995146;28;45282;-64
2021/08/31 11:08:40;;;;;;;;;27.00;23.00;;;;;22.73;49.67;101584.28;5013126;28;45494;-63
2021/08/31 11:11:16;;;;;;;;;25.75;22.25;;;;;22.82;49.48;101582.75;5013044;28;45772;-63
2021/08/31 11:13:53;;;;;;;;;24.25;19.50;;;;;22.88;49.45;101576.91;4995124;28;45470;-63